createdAt,value
2022-10-09T00:01:14.923Z,9.50
2022-10-09T00:03:41.987Z,9.40
2022-10-09T00:06:09.626Z,9.30
2022-10-09T00:08:38.731Z,9.20
2022-10-09T00:11:12.999Z,9.10
2022-10-09T00:13:39.377Z,9.00
2022-10-09T00:16:07.350Z,8.80
2022-10-09T00:18:33.631Z,8.70
2022-10-09T00:20:59.814Z,8.70
2022-10-09T00:23:26.454Z,8.70
2022-10-09T00:25:58.970Z,8.70
2022-10-09T00:28:26.026Z,8.90
2022-10-09T00:30:55.395Z,8.80
2022-10-09T00:33:21.664Z,8.80
2022-10-09T00:35:47.916Z,8.80
2022-10-09T00:38:14.197Z,8.80
2022-10-09T00:40:40.362Z,8.70
2022-10-09T00:43:12.852Z,8.70
2022-10-09T00:45:44.858Z,8.70
2022-10-09T00:48:11.611Z,8.70
2022-10-09T00:50:44.496Z,8.80
2022-10-09T00:53:12.801Z,8.90
2022-10-09T00:55:39.050Z,8.90
2022-10-09T00:58:06.060Z,8.90
2022-10-09T01:00:32.229Z,8.90
2022-10-09T01:02:58.502Z,8.90
2022-10-09T01:05:55.356Z,8.90
2022-10-09T01:08:36.031Z,8.90
2022-10-09T01:11:11.184Z,8.90
2022-10-09T01:13:49.215Z,8.90
2022-10-09T01:16:24.020Z,8.90
2022-10-09T01:19:02.354Z,8.80
2022-10-09T01:21:38.128Z,8.80
2022-10-09T01:24:38.806Z,8.80
2022-10-09T01:27:38.386Z,8.90
2022-10-09T01:30:10.575Z,8.80
2022-10-09T01:32:38.627Z,8.80
2022-10-09T01:35:06.483Z,8.80
2022-10-09T01:37:32.844Z,8.80
2022-10-09T01:39:59.751Z,8.70
2022-10-09T01:42:29.328Z,8.80
2022-10-09T01:44:55.537Z,8.80
2022-10-09T01:47:21.866Z,8.80
2022-10-09T01:50:25.080Z,8.80
2022-10-09T01:52:59.757Z,8.80
2022-10-09T01:56:48.798Z,8.80
2022-10-09T01:59:16.686Z,8.80
2022-10-09T02:01:43.146Z,8.80
2022-10-09T02:04:11.005Z,8.80
2022-10-09T02:06:40.110Z,8.80
2022-10-09T02:09:13.766Z,8.80
2022-10-09T02:11:42.052Z,8.80
2022-10-09T02:14:08.333Z,8.70
2022-10-09T02:16:43.462Z,8.70
2022-10-09T02:19:38.313Z,8.60
2022-10-09T02:22:47.294Z,8.60
2022-10-09T02:25:15.416Z,8.50
2022-10-09T02:27:43.892Z,8.50
2022-10-09T02:30:11.322Z,8.40
2022-10-09T02:32:38.635Z,8.40
2022-10-09T02:35:05.717Z,8.30
2022-10-09T02:37:31.933Z,8.30
2022-10-09T02:39:58.166Z,8.30
2022-10-09T02:42:25.784Z,8.20
2022-10-09T02:44:53.019Z,8.20
2022-10-09T02:47:19.239Z,8.20
2022-10-09T02:49:46.486Z,8.20
2022-10-09T02:52:12.651Z,8.10
2022-10-09T02:54:38.842Z,8.10
2022-10-09T02:57:05.074Z,8.10
2022-10-09T02:59:31.509Z,8.10
2022-10-09T03:01:57.890Z,8.10
2022-10-09T03:04:24.507Z,8.10
2022-10-09T03:06:51.437Z,8.00
2022-10-09T03:09:17.654Z,8.00
2022-10-09T03:11:43.873Z,8.00
2022-10-09T03:14:10.128Z,8.00
2022-10-09T03:16:36.589Z,8.00
2022-10-09T03:19:02.868Z,8.00
2022-10-09T03:21:29.110Z,7.90
2022-10-09T03:23:55.404Z,7.90
2022-10-09T03:26:23.236Z,7.80
2022-10-09T03:28:50.285Z,7.80
2022-10-09T03:31:33.374Z,7.80
2022-10-09T03:34:13.439Z,7.70
2022-10-09T03:36:40.881Z,7.70
2022-10-09T03:39:07.665Z,7.70
2022-10-09T03:41:33.863Z,7.70
2022-10-09T03:44:00.141Z,7.70
2022-10-09T03:46:26.491Z,7.70
2022-10-09T03:48:53.155Z,7.70
2022-10-09T03:51:19.373Z,7.70
2022-10-09T03:53:45.575Z,7.60
2022-10-09T03:56:12.236Z,7.60
2022-10-09T03:58:38.455Z,7.60
2022-10-09T04:01:06.670Z,7.50
2022-10-09T04:03:32.895Z,7.50
2022-10-09T04:05:59.091Z,7.50
2022-10-09T04:08:25.282Z,7.40
2022-10-09T04:11:00.504Z,7.40
2022-10-09T04:13:27.363Z,7.40
2022-10-09T04:15:54.390Z,7.40
2022-10-09T04:18:20.637Z,7.40
2022-10-09T04:20:51.822Z,7.30
2022-10-09T04:23:20.125Z,7.30
2022-10-09T04:25:54.177Z,7.30
2022-10-09T04:28:22.775Z,7.20
2022-10-09T04:30:49.029Z,7.20
2022-10-09T04:33:15.238Z,7.20
2022-10-09T04:35:42.532Z,7.20
2022-10-09T04:38:08.797Z,7.10
2022-10-09T04:40:34.971Z,7.10
2022-10-09T04:43:01.186Z,7.20
2022-10-09T04:45:27.448Z,7.20
2022-10-09T04:47:53.730Z,7.10
2022-10-09T04:50:20.270Z,7.10
2022-10-09T04:52:46.761Z,7.10
2022-10-09T04:55:14.241Z,7.10
2022-10-09T04:57:41.817Z,7.10
2022-10-09T05:00:10.343Z,7.20
2022-10-09T05:02:37.586Z,7.30
2022-10-09T05:05:04.273Z,7.30
2022-10-09T05:07:31.522Z,7.40
2022-10-09T05:09:58.230Z,7.30
2022-10-09T05:12:24.940Z,7.30
2022-10-09T05:14:51.142Z,7.30
2022-10-09T05:17:24.181Z,7.30
2022-10-09T05:19:50.499Z,7.30
2022-10-09T05:22:16.710Z,7.30
2022-10-09T05:24:42.949Z,7.30
2022-10-09T05:27:09.295Z,7.40
2022-10-09T05:29:35.498Z,7.40
2022-10-09T05:32:02.683Z,7.40
2022-10-09T05:34:29.023Z,7.50
2022-10-09T05:36:55.275Z,7.60
2022-10-09T05:39:21.680Z,7.70
2022-10-09T05:41:47.855Z,7.80
2022-10-09T05:44:16.437Z,7.80
2022-10-09T05:46:44.269Z,8.00
2022-10-09T05:49:11.959Z,8.00
2022-10-09T05:51:38.787Z,8.90
2022-10-09T05:54:05.997Z,8.50
2022-10-09T05:56:36.574Z,8.60
2022-10-09T05:59:08.063Z,8.80
2022-10-09T06:01:39.266Z,9.70
2022-10-09T06:04:09.195Z,10.60
2022-10-09T06:06:37.664Z,10.70
2022-10-09T06:09:06.102Z,10.70
2022-10-09T06:11:34.388Z,10.60
2022-10-09T06:14:02.176Z,11.00
2022-10-09T06:16:30.563Z,11.20
2022-10-09T06:18:57.807Z,11.70
2022-10-09T06:21:27.424Z,12.60
2022-10-09T06:23:58.624Z,12.50
2022-10-09T06:26:28.879Z,12.70
2022-10-09T06:28:56.813Z,13.00
2022-10-09T06:31:25.370Z,13.10
2022-10-09T06:33:53.695Z,13.50
2022-10-09T06:36:31.059Z,14.00
2022-10-09T06:39:00.001Z,15.20
2022-10-09T06:41:26.817Z,15.00
2022-10-09T06:43:55.033Z,14.10
2022-10-09T06:46:24.110Z,13.60
2022-10-09T06:48:50.400Z,13.40
2022-10-09T06:51:18.260Z,13.20
2022-10-09T06:53:46.697Z,13.00
2022-10-09T06:56:12.998Z,12.80
2022-10-09T06:58:39.888Z,12.50
2022-10-09T07:01:14.623Z,12.50
2022-10-09T07:03:43.483Z,12.20
2022-10-09T07:06:43.532Z,11.90
2022-10-09T07:09:11.401Z,11.40
2022-10-09T07:11:46.263Z,11.30
2022-10-09T07:14:13.118Z,11.20
2022-10-09T07:16:41.443Z,11.10
2022-10-09T07:19:10.561Z,11.10
2022-10-09T07:21:37.472Z,11.20
2022-10-09T07:24:04.211Z,11.40
2022-10-09T07:26:32.126Z,11.40
2022-10-09T07:28:58.406Z,11.90
2022-10-09T07:31:24.634Z,12.80
2022-10-09T07:33:51.897Z,13.90
2022-10-09T07:36:18.153Z,14.80
2022-10-09T07:38:48.081Z,15.80
2022-10-09T07:41:14.311Z,16.30
2022-10-09T07:43:41.384Z,16.80
2022-10-09T07:46:12.681Z,17.10
2022-10-09T07:48:40.910Z,16.50
2022-10-09T07:51:28.224Z,17.70
2022-10-09T07:53:56.253Z,16.90
2022-10-09T07:56:24.594Z,16.20
2022-10-09T07:58:52.075Z,17.40
2022-10-09T08:01:20.352Z,17.30
2022-10-09T08:03:47.657Z,17.00
2022-10-09T08:06:13.862Z,17.40
2022-10-09T08:08:40.294Z,17.50
2022-10-09T08:11:10.690Z,17.40
2022-10-09T08:13:37.003Z,17.00
2022-10-09T08:16:03.991Z,17.10
2022-10-09T08:18:30.278Z,16.90
2022-10-09T08:20:59.401Z,17.20
2022-10-09T08:23:25.895Z,16.50
2022-10-09T08:25:52.490Z,16.70
2022-10-09T08:28:19.477Z,16.40
2022-10-09T08:30:45.789Z,16.10
2022-10-09T08:33:12.073Z,15.20
2022-10-09T08:35:39.157Z,16.20
2022-10-09T08:38:05.395Z,16.10
2022-10-09T08:42:05.596Z,17.10
2022-10-09T08:44:46.150Z,16.70
2022-10-09T08:47:26.987Z,16.50
2022-10-09T08:50:39.706Z,16.40
2022-10-09T08:53:22.732Z,16.50
2022-10-09T08:55:58.767Z,16.60
2022-10-09T08:58:26.996Z,17.10
2022-10-09T09:01:39.396Z,17.00
2022-10-09T09:04:33.755Z,17.20
2022-10-09T09:07:24.216Z,16.60
2022-10-09T09:10:42.187Z,16.80
2022-10-09T09:14:01.455Z,16.70
2022-10-09T09:16:52.184Z,16.90
2022-10-09T09:20:52.975Z,17.00
2022-10-09T09:23:26.938Z,17.40
2022-10-09T09:25:53.340Z,17.60
2022-10-09T09:28:25.879Z,17.40
2022-10-09T09:31:32.693Z,17.60
2022-10-09T09:34:14.666Z,16.40
2022-10-09T09:36:58.416Z,16.40
2022-10-09T09:42:23.767Z,17.20
2022-10-09T09:44:59.859Z,17.30
2022-10-09T09:47:29.801Z,16.20
2022-10-09T09:49:58.159Z,17.30
2022-10-09T09:52:26.157Z,17.70
2022-10-09T09:54:52.387Z,17.30
2022-10-09T09:57:32.700Z,17.50
2022-10-09T10:00:20.971Z,18.00
2022-10-09T10:02:47.704Z,17.50
2022-10-09T10:05:24.365Z,17.70
2022-10-09T10:07:51.817Z,17.60
2022-10-09T10:10:26.081Z,17.60
2022-10-09T10:12:56.521Z,17.50
2022-10-09T10:15:32.767Z,17.60
2022-10-09T10:18:04.650Z,17.70
2022-10-09T10:20:32.512Z,17.30
2022-10-09T10:22:59.322Z,17.70
2022-10-09T10:25:32.842Z,17.00
2022-10-09T10:28:10.515Z,17.10
2022-10-09T10:30:38.625Z,17.40
2022-10-09T10:33:29.348Z,17.90
2022-10-09T10:35:55.748Z,18.20
2022-10-09T10:38:33.478Z,18.60
2022-10-09T10:41:14.185Z,18.90
2022-10-09T10:44:34.779Z,18.40
2022-10-09T10:47:06.748Z,19.00
2022-10-09T10:49:33.924Z,19.30
2022-10-09T10:54:11.327Z,19.70
2022-10-09T10:56:40.719Z,18.90
2022-10-09T11:02:48.889Z,18.40
2022-10-09T11:05:46.338Z,18.40
2022-10-09T11:08:50.119Z,18.30
2022-10-09T11:11:48.543Z,18.30
2022-10-09T11:18:44.114Z,18.50
2022-10-09T11:21:37.185Z,19.20
2022-10-09T11:26:00.655Z,19.30
2022-10-09T11:28:42.875Z,18.20
2022-10-09T11:31:33.414Z,18.70
2022-10-09T11:34:03.696Z,18.70
2022-10-09T11:36:35.568Z,19.10
2022-10-09T11:39:04.637Z,19.10
2022-10-09T11:41:30.888Z,19.30
2022-10-09T11:44:31.586Z,19.40
2022-10-09T11:52:22.156Z,19.00
2022-10-09T11:54:48.442Z,19.80
2022-10-09T11:57:15.599Z,19.50
2022-10-09T11:59:45.209Z,19.50
2022-10-09T12:02:27.757Z,19.90
2022-10-09T12:04:55.489Z,18.50
2022-10-09T12:07:27.912Z,18.80
2022-10-09T12:09:57.863Z,18.30
2022-10-09T12:12:24.210Z,18.30
2022-10-09T12:14:51.259Z,18.90
2022-10-09T12:17:33.671Z,18.80
2022-10-09T12:20:09.007Z,17.70
2022-10-09T12:22:40.104Z,18.10
2022-10-09T12:25:27.446Z,17.20
2022-10-09T12:27:55.271Z,17.20
2022-10-09T12:30:23.191Z,17.60
2022-10-09T12:32:55.864Z,17.70
2022-10-09T12:35:39.672Z,17.20
2022-10-09T12:38:32.479Z,17.00
2022-10-09T12:41:05.466Z,16.80
2022-10-09T12:43:32.333Z,16.70
2022-10-09T12:45:58.795Z,17.10
2022-10-09T12:48:26.737Z,17.30
2022-10-09T12:50:53.202Z,17.20
2022-10-09T12:53:24.720Z,17.30
2022-10-09T12:56:00.467Z,17.80
2022-10-09T12:58:32.208Z,18.00
2022-10-09T13:01:16.855Z,17.20
2022-10-09T13:03:56.170Z,18.20
2022-10-09T13:06:28.870Z,18.30
2022-10-09T13:09:01.627Z,18.20
2022-10-09T13:11:42.236Z,17.80
2022-10-09T13:14:41.524Z,17.70
2022-10-09T13:17:41.673Z,18.20
2022-10-09T13:23:02.270Z,18.60
2022-10-09T13:25:33.817Z,18.70
2022-10-09T13:28:03.271Z,18.70
2022-10-09T13:30:30.281Z,18.80
2022-10-09T13:32:56.571Z,18.70
2022-10-09T13:35:25.546Z,18.80
2022-10-09T13:37:54.711Z,18.90
2022-10-09T13:40:21.637Z,18.80
2022-10-09T13:42:53.352Z,18.60
2022-10-09T13:45:19.719Z,18.70
2022-10-09T13:47:46.695Z,18.70
2022-10-09T13:50:13.516Z,18.70
2022-10-09T13:55:07.889Z,18.60
2022-10-09T13:57:34.278Z,18.20
2022-10-09T14:00:00.940Z,18.20
2022-10-09T14:02:27.299Z,18.60
2022-10-09T14:04:53.512Z,18.70
2022-10-09T14:07:19.850Z,18.40
2022-10-09T14:09:46.111Z,18.10
2022-10-09T14:12:14.651Z,18.00
2022-10-09T14:14:40.971Z,17.70
2022-10-09T14:17:07.265Z,17.60
2022-10-09T14:19:33.661Z,17.50
2022-10-09T14:21:59.971Z,17.50
2022-10-09T14:24:26.168Z,17.20
2022-10-09T14:26:52.468Z,17.10
2022-10-09T14:29:19.125Z,17.00
2022-10-09T14:31:45.568Z,16.80
2022-10-09T14:34:12.535Z,16.70
2022-10-09T14:36:38.806Z,16.40
2022-10-09T14:39:06.277Z,16.10
2022-10-09T14:41:37.457Z,16.10
2022-10-09T14:44:04.670Z,15.80
2022-10-09T14:46:33.377Z,15.70
2022-10-09T14:49:00.691Z,15.50
2022-10-09T14:51:27.382Z,15.40
2022-10-09T14:53:58.255Z,15.30
2022-10-09T14:56:24.705Z,15.00
2022-10-09T14:58:51.079Z,14.80
2022-10-09T15:01:18.445Z,14.70
2022-10-09T15:03:45.537Z,14.60
2022-10-09T15:06:12.895Z,14.40
2022-10-09T15:08:40.540Z,14.30
2022-10-09T15:11:06.898Z,14.20
2022-10-09T15:13:34.424Z,14.10
2022-10-09T15:16:05.469Z,13.90
2022-10-09T15:18:32.091Z,13.70
2022-10-09T15:20:59.129Z,13.70
2022-10-09T15:23:27.310Z,13.60
2022-10-09T15:25:56.800Z,13.40
2022-10-09T15:28:23.599Z,13.30
2022-10-09T15:30:53.766Z,12.90
2022-10-09T15:33:21.659Z,13.00
2022-10-09T15:35:49.351Z,12.80
2022-10-09T15:38:16.537Z,12.60
2022-10-09T15:40:47.229Z,12.50
2022-10-09T15:43:15.270Z,12.40
2022-10-09T15:45:41.699Z,12.20
2022-10-09T15:48:14.358Z,12.10
2022-10-09T15:50:41.251Z,11.90
2022-10-09T15:53:13.652Z,11.80
2022-10-09T15:55:43.746Z,11.60
2022-10-09T15:58:10.334Z,11.60
2022-10-09T16:00:42.617Z,11.50
2022-10-09T16:03:10.220Z,11.30
2022-10-09T16:05:44.084Z,11.00
2022-10-09T16:08:11.039Z,10.80
2022-10-09T16:10:51.397Z,10.60
2022-10-09T16:13:18.073Z,10.40
2022-10-09T16:15:46.360Z,10.20
2022-10-09T16:18:13.260Z,10.10
2022-10-09T16:20:40.891Z,9.90
2022-10-09T16:23:08.083Z,9.80
2022-10-09T16:25:34.996Z,9.70
2022-10-09T16:28:02.054Z,9.50
2022-10-09T16:30:29.674Z,9.40
2022-10-09T16:32:56.062Z,9.30
2022-10-09T16:35:23.389Z,9.20
2022-10-09T16:37:52.386Z,9.10
2022-10-09T16:40:18.891Z,9.00
2022-10-09T16:42:45.942Z,9.00
2022-10-09T16:45:13.094Z,8.80
2022-10-09T16:47:43.007Z,8.70
2022-10-09T16:50:11.559Z,8.60
2022-10-09T16:52:38.077Z,8.50
2022-10-09T16:55:06.724Z,8.40
2022-10-09T16:57:33.916Z,8.30
2022-10-09T17:00:04.825Z,8.20
2022-10-09T17:02:32.069Z,8.10
2022-10-09T17:04:58.809Z,8.10
2022-10-09T17:07:29.054Z,8.10
2022-10-09T17:09:57.577Z,8.00
2022-10-09T17:12:25.470Z,8.00
2022-10-09T17:14:54.441Z,8.00
2022-10-09T17:17:21.133Z,7.80
2022-10-09T17:19:47.468Z,7.70
2022-10-09T17:22:13.917Z,7.70
2022-10-09T17:24:44.627Z,7.60
2022-10-09T17:27:11.706Z,7.60
2022-10-09T17:29:38.505Z,7.60
2022-10-09T17:32:09.558Z,7.50
2022-10-09T17:34:35.892Z,7.50
2022-10-09T17:37:03.409Z,7.90
2022-10-09T17:39:29.818Z,7.30
2022-10-09T17:42:00.367Z,7.20
2022-10-09T17:44:31.483Z,7.20
2022-10-09T17:46:58.052Z,7.30
2022-10-09T17:49:24.751Z,7.10
2022-10-09T17:51:56.362Z,7.00
2022-10-09T17:54:27.072Z,7.10
2022-10-09T17:56:54.345Z,7.30
2022-10-09T17:59:21.458Z,7.30
2022-10-09T18:01:48.215Z,7.20
2022-10-09T18:04:16.261Z,7.00
2022-10-09T18:06:45.011Z,7.00
2022-10-09T18:09:11.756Z,6.90
2022-10-09T18:11:42.596Z,7.20
2022-10-09T18:14:10.355Z,6.80
2022-10-09T18:16:37.837Z,6.80
2022-10-09T18:19:07.107Z,6.80
2022-10-09T18:21:39.552Z,8.80
2022-10-09T18:24:07.994Z,6.60
2022-10-09T18:26:38.203Z,6.60
2022-10-09T18:29:07.405Z,6.60
2022-10-09T18:31:35.732Z,6.50
2022-10-09T18:34:02.168Z,6.50
2022-10-09T18:36:34.651Z,6.50
2022-10-09T18:39:04.280Z,6.50
2022-10-09T18:41:31.467Z,6.40
2022-10-09T18:44:00.105Z,6.30
2022-10-09T18:46:27.192Z,6.40
2022-10-09T18:48:54.410Z,6.30
2022-10-09T18:51:23.443Z,6.30
2022-10-09T18:53:53.069Z,6.20
2022-10-09T18:56:20.919Z,6.20
2022-10-09T18:58:51.368Z,6.10
2022-10-09T19:01:19.162Z,6.10
2022-10-09T19:03:49.208Z,6.00
2022-10-09T19:06:17.803Z,6.00
2022-10-09T19:08:44.539Z,6.10
2022-10-09T19:11:16.203Z,6.00
2022-10-09T19:13:44.688Z,6.00
2022-10-09T19:16:12.746Z,5.90
2022-10-09T19:18:39.432Z,5.90
2022-10-09T19:21:12.609Z,6.00
2022-10-09T19:23:40.562Z,5.90
2022-10-09T19:26:07.486Z,5.90
2022-10-09T19:28:37.239Z,5.80
2022-10-09T19:31:07.348Z,5.80
2022-10-09T19:33:35.692Z,5.80
2022-10-09T19:36:02.091Z,5.80
2022-10-09T19:38:31.636Z,5.80
2022-10-09T19:41:09.878Z,5.80
2022-10-09T19:43:36.351Z,5.80
2022-10-09T19:46:10.255Z,5.70
2022-10-09T19:48:37.029Z,5.70
2022-10-09T19:51:08.625Z,5.60
2022-10-09T19:53:36.170Z,5.60
2022-10-09T19:56:07.625Z,5.50
2022-10-09T19:58:34.062Z,5.40
2022-10-09T20:01:00.349Z,5.40
2022-10-09T20:03:26.979Z,5.40
2022-10-09T20:05:54.319Z,5.40
2022-10-09T20:08:23.519Z,5.50
2022-10-09T20:10:50.231Z,5.40
2022-10-09T20:13:16.850Z,5.50
2022-10-09T20:15:45.717Z,5.60
2022-10-09T20:18:12.088Z,5.60
2022-10-09T20:20:43.063Z,5.50
2022-10-09T20:23:10.917Z,5.60
2022-10-09T20:25:50.432Z,5.50
2022-10-09T20:28:28.220Z,5.50
2022-10-09T20:31:06.297Z,5.40
2022-10-09T20:33:41.218Z,5.30
2022-10-09T20:36:36.155Z,5.30
2022-10-09T20:39:13.480Z,5.50
2022-10-09T20:41:42.503Z,5.50
2022-10-09T20:44:12.304Z,5.60
2022-10-09T20:46:39.434Z,5.70
2022-10-09T20:49:12.183Z,5.60
2022-10-09T20:51:39.916Z,5.50
2022-10-09T20:54:07.389Z,5.40
2022-10-09T20:56:40.015Z,5.50
2022-10-09T20:59:06.445Z,5.60
2022-10-09T21:01:33.519Z,5.50
2022-10-09T21:04:08.537Z,5.40
2022-10-09T21:06:37.013Z,5.40
2022-10-09T21:09:04.179Z,5.30
2022-10-09T21:11:34.414Z,5.30
2022-10-09T21:14:01.345Z,5.30
2022-10-09T21:16:27.651Z,5.30
2022-10-09T21:18:58.711Z,5.30
2022-10-09T21:21:24.938Z,5.20
2022-10-09T21:23:53.018Z,5.30
2022-10-09T21:26:19.762Z,5.30
2022-10-09T21:28:46.417Z,5.30
2022-10-09T21:31:17.854Z,5.30
2022-10-09T21:33:44.613Z,5.40
2022-10-09T21:36:15.940Z,5.30
2022-10-09T21:38:42.203Z,5.30
2022-10-09T21:41:08.929Z,5.30
2022-10-09T21:43:35.213Z,5.20
2022-10-09T21:46:01.451Z,5.50
2022-10-09T21:48:28.716Z,5.50
2022-10-09T21:50:55.883Z,5.60
2022-10-09T21:53:22.153Z,5.50
2022-10-09T21:55:48.382Z,5.40
2022-10-09T21:58:15.124Z,5.30
2022-10-09T22:00:41.368Z,5.30
2022-10-09T22:03:07.685Z,5.30
2022-10-09T22:05:33.869Z,5.20
2022-10-09T22:08:03.448Z,5.20
2022-10-09T22:10:30.810Z,5.30
2022-10-09T22:12:57.107Z,5.00
2022-10-09T22:15:23.528Z,6.50
2022-10-09T22:17:49.801Z,4.90
2022-10-09T22:20:16.201Z,5.00
2022-10-09T22:22:42.535Z,5.20
2022-10-09T22:25:09.460Z,5.10
2022-10-09T22:27:35.733Z,5.00
2022-10-09T22:30:02.270Z,5.00
2022-10-09T22:32:28.458Z,4.90
2022-10-09T22:34:54.690Z,5.00
2022-10-09T22:37:20.862Z,5.10
2022-10-09T22:39:47.147Z,5.20
2022-10-09T22:42:15.849Z,5.10
2022-10-09T22:44:42.054Z,5.20
2022-10-09T22:47:08.231Z,5.10
2022-10-09T22:49:35.333Z,5.20
2022-10-09T22:52:01.538Z,5.20
2022-10-09T22:54:27.738Z,5.20
2022-10-09T22:56:54.091Z,5.20
2022-10-09T22:59:20.293Z,5.20
2022-10-09T23:01:53.445Z,5.30
2022-10-09T23:04:20.554Z,5.20
2022-10-09T23:06:49.241Z,5.20
2022-10-09T23:09:16.335Z,5.20
2022-10-09T23:11:42.574Z,5.10
2022-10-09T23:14:09.782Z,5.00
2022-10-09T23:16:35.983Z,5.10
2022-10-09T23:19:06.415Z,5.20
2022-10-09T23:21:33.460Z,5.50
2022-10-09T23:24:00.094Z,5.50
2022-10-09T23:26:28.815Z,5.40
2022-10-09T23:29:03.044Z,5.40
2022-10-09T23:31:29.715Z,5.30
2022-10-09T23:33:56.025Z,5.30
2022-10-09T23:36:23.928Z,5.30
2022-10-09T23:38:50.127Z,5.30
2022-10-09T23:41:19.129Z,5.30
2022-10-09T23:43:45.581Z,5.30
2022-10-09T23:46:16.278Z,6.50
2022-10-09T23:48:45.289Z,5.30
2022-10-09T23:51:12.295Z,5.30
2022-10-09T23:53:38.468Z,5.30
2022-10-09T23:56:11.399Z,5.30
2022-10-09T23:58:38.602Z,3.20
